Ottawa, Ontario

10:29 AM EST on February 26, 2017 (GMT -0500)
Ottawa-Macdonald-Cartier International | | Change Station

Elev 374 ft 45.32 °N, 75.67 °W | Updated 29 minutes ago

Scattered Clouds
Scattered Clouds
21 °F
Feels Like 7 °F
N
16
Wind Variable Wind from West
Gusts 26 mph

Today
High -- | Low -- °F
--% Chance of Precip.
Yesterday
High -- | Low -- °F
Precip. -- in
Pressure 29.95 in
Visibility 15.0 miles
Clouds Scattered Clouds 3000 ft
Windchill 7 °F
Dew Point 9 °F
Humidity 58%
Rainfall 0.00 in
Snow Depth Not available.
6:45 AM 5:46 PM
New Moon, 0% visible
METAR CYOW 261500Z 28014G23KT 15SM SCT030 M06/M13 A2992 RMK SC3 SLP140
Pressure 29.95 in
Visibility 15.0 miles
Clouds Scattered Clouds 3000 ft
Windchill 7 °F
Dew Point 9 °F
Humidity 58%
Rainfall 0.00 in
Snow Depth Not available.
6:45 AM 5:46 PM
New Moon, 0% visible
METAR CYOW 261500Z 28014G23KT 15SM SCT030 M06/M13 A2992 RMK SC3 SLP140

Get Your Daily Forecast Email!

Thanks for signing up!

Be on the lookout for a verification email in your inbox.

You'll start receiving the daily forecast at 8 AM.

×

10-Day Weather Forecast

Almanac

Astronomy

Feb. 26, 2017 Rise Set
Actual Time
Civil Twilight
Nautical Twilight
Astronomical Twilight
Moon
Length of Visible Light
Length of Day
Tomorrow will be .
, % of the Moon is Illuminated

Today's Extremes

Country Highs Country Lows

Community

WunderPhotos

Upload Photos

1,962,540 photos uploaded!

WunderBlog® & News

Nearby

Air Quality

  Air Quality AQ Index Pollutant
Not available.

Snow Depth

Station Depth Elevation

Earthquake Activity

City Distance Mag. Time & Date
Minimum magnitude displayed is 2.5.

Coastal Water Temperatures

Place Temperature

Stations

Nearby Weather Stations

Station Location Temp. Windchill Dew Point Humidity Wind Precip. Elev Updated Type
                   

Watches & Warnings

There are currently no watches in effect.